createdAt,value
2023-05-06T03:02:37.352Z,99.90
2023-05-06T03:05:06.001Z,99.90
2023-05-06T03:07:33.928Z,99.90
2023-05-06T03:10:02.118Z,99.90
2023-05-06T03:12:33.710Z,99.90
2023-05-06T03:15:01.589Z,99.90
2023-05-06T03:17:30.233Z,99.90
2023-05-06T03:19:59.898Z,99.90
2023-05-06T03:22:28.273Z,99.90
2023-05-06T03:24:57.384Z,99.90
2023-05-06T03:27:26.451Z,99.90
2023-05-06T03:29:59.019Z,99.90
2023-05-06T03:32:27.085Z,99.90
2023-05-06T03:34:55.813Z,99.90
2023-05-06T03:37:25.227Z,99.90
2023-05-06T03:39:56.507Z,99.90
2023-05-06T03:42:27.402Z,99.90
2023-05-06T03:44:55.391Z,99.90
2023-05-06T03:47:24.541Z,99.90
2023-05-06T03:49:52.492Z,99.90
2023-05-06T03:52:21.039Z,99.90
2023-05-06T03:54:50.729Z,99.90
2023-05-06T03:57:19.064Z,99.90
2023-05-06T03:59:47.030Z,99.90
2023-05-06T04:02:15.767Z,99.90
2023-05-06T04:04:44.375Z,99.90
2023-05-06T04:07:13.095Z,99.90
2023-05-06T04:09:41.027Z,99.90
2023-05-06T04:12:11.122Z,99.90
2023-05-06T04:14:40.279Z,99.90
2023-05-06T04:17:09.112Z,99.90
2023-05-06T04:19:38.881Z,99.90
2023-05-06T04:22:06.775Z,99.90
2023-05-06T04:24:34.631Z,99.90
2023-05-06T04:27:04.373Z,99.90
2023-05-06T04:29:33.751Z,99.90
2023-05-06T04:32:04.867Z,99.90
2023-05-06T04:34:36.135Z,99.90
2023-05-06T04:37:05.594Z,99.90
2023-05-06T04:39:42.517Z,99.90
2023-05-06T04:42:10.443Z,99.90
2023-05-06T04:44:46.878Z,99.90
2023-05-06T04:47:14.748Z,99.90
2023-05-06T04:49:46.316Z,99.90
2023-05-06T04:52:14.517Z,99.90
2023-05-06T04:54:43.555Z,99.90
2023-05-06T04:57:13.269Z,99.90
2023-05-06T04:59:43.940Z,99.90
2023-05-06T05:02:14.259Z,99.90
2023-05-06T05:04:43.882Z,99.90
2023-05-06T05:07:11.786Z,99.90
2023-05-06T05:09:39.749Z,99.90
2023-05-06T05:12:08.824Z,99.90
2023-05-06T05:14:42.532Z,99.90
2023-05-06T05:17:12.207Z,99.90
2023-05-06T05:19:42.101Z,99.90
2023-05-06T05:22:10.467Z,99.90
2023-05-06T05:24:38.573Z,99.90
2023-05-06T05:27:06.408Z,99.90
2023-05-06T05:29:35.156Z,99.90
2023-05-06T05:32:06.653Z,99.90
2023-05-06T05:34:35.297Z,99.90
2023-05-06T05:37:04.839Z,99.90
2023-05-06T05:39:33.838Z,99.90
2023-05-06T05:42:02.244Z,99.90
2023-05-06T05:44:30.431Z,99.90
2023-05-06T05:46:58.806Z,99.90
2023-05-06T05:49:26.746Z,99.90
2023-05-06T05:51:55.024Z,99.90
2023-05-06T05:54:24.930Z,99.90
2023-05-06T05:56:52.806Z,99.90
2023-05-06T05:59:20.745Z,99.90
2023-05-06T06:01:51.164Z,99.90
2023-05-06T06:04:19.844Z,99.90
2023-05-06T06:06:47.912Z,99.90
2023-05-06T06:09:16.688Z,99.90
2023-05-06T06:11:46.482Z,99.90
2023-05-06T06:14:14.481Z,99.90
2023-05-06T06:16:43.338Z,99.90
2023-05-06T06:19:11.388Z,99.90
2023-05-06T06:21:39.238Z,99.90
2023-05-06T06:24:07.519Z,99.90
2023-05-06T06:26:35.379Z,99.90
2023-05-06T06:29:04.611Z,99.90
2023-05-06T06:31:33.923Z,99.90
2023-05-06T06:34:05.210Z,99.90
2023-05-06T06:36:33.319Z,99.90
2023-05-06T06:39:01.154Z,99.90
2023-05-06T06:41:29.087Z,99.90
2023-05-06T06:43:56.922Z,99.90
2023-05-06T06:46:28.253Z,99.90
2023-05-06T06:48:56.184Z,99.90
2023-05-06T06:51:24.038Z,99.90
2023-05-06T06:53:52.706Z,99.90
2023-05-06T06:56:21.300Z,99.90
2023-05-06T06:58:50.306Z,99.90
2023-05-06T07:01:20.243Z,99.90
2023-05-06T07:03:49.447Z,99.90
2023-05-06T07:06:17.350Z,99.90
2023-05-06T07:08:45.200Z,99.90
2023-05-06T07:11:14.292Z,99.90
2023-05-06T07:13:42.144Z,99.90
2023-05-06T07:16:10.007Z,99.90
2023-05-06T07:18:37.900Z,99.90
2023-05-06T07:21:07.293Z,99.90
2023-05-06T07:23:35.159Z,99.90
2023-05-06T07:26:03.035Z,99.90
2023-05-06T07:28:30.871Z,99.90
2023-05-06T07:30:58.754Z,99.90
2023-05-06T07:33:26.729Z,99.90
2023-05-06T07:35:54.846Z,99.90
2023-05-06T07:38:24.217Z,99.90
2023-05-06T07:40:52.924Z,99.90
2023-05-06T07:43:21.055Z,99.90
2023-05-06T07:45:48.904Z,99.90
2023-05-06T07:48:18.603Z,99.90
2023-05-06T07:50:47.633Z,99.90
2023-05-06T07:53:15.578Z,99.90
2023-05-06T07:55:44.761Z,99.90
2023-05-06T07:58:12.589Z,99.90
2023-05-06T08:00:40.621Z,99.90
2023-05-06T08:03:09.056Z,99.90
2023-05-06T08:05:37.077Z,99.90
2023-05-06T08:08:05.516Z,99.90
2023-05-06T08:10:33.521Z,99.90
2023-05-06T08:13:03.181Z,99.90
2023-05-06T08:15:31.157Z,99.90
2023-05-06T08:18:04.418Z,99.90
2023-05-06T08:20:42.196Z,99.90
2023-05-06T08:23:10.093Z,99.90
2023-05-06T08:25:37.970Z,99.90
2023-05-06T08:28:07.196Z,99.90
2023-05-06T08:30:35.157Z,99.90
2023-05-06T08:33:03.601Z,99.90
2023-05-06T08:35:31.507Z,99.90
2023-05-06T08:37:59.383Z,99.90
2023-05-06T08:40:29.308Z,99.90
2023-05-06T08:42:58.334Z,99.90
2023-05-06T08:45:29.559Z,99.90
2023-05-06T08:47:57.678Z,99.90
2023-05-06T08:50:26.783Z,99.90
2023-05-06T08:52:55.133Z,99.90
2023-05-06T08:55:23.341Z,99.90
2023-05-06T08:57:53.542Z,99.90
2023-05-06T09:00:21.625Z,99.90
2023-05-06T09:02:51.060Z,99.90
2023-05-06T09:05:19.046Z,99.90
2023-05-06T09:07:46.882Z,99.90
2023-05-06T09:10:17.743Z,99.90
2023-05-06T09:12:45.686Z,99.90
2023-05-06T09:15:13.794Z,99.90
2023-05-06T09:17:41.967Z,99.90
2023-05-06T09:20:13.480Z,99.90
2023-05-06T09:22:42.216Z,99.90
2023-05-06T09:25:11.791Z,99.90
2023-05-06T09:27:40.529Z,99.90
2023-05-06T09:30:11.575Z,99.90
2023-05-06T09:32:40.382Z,99.90
2023-05-06T09:35:11.688Z,99.90
2023-05-06T09:37:40.219Z,99.90
2023-05-06T09:40:10.118Z,99.90
2023-05-06T09:42:39.235Z,99.90
2023-05-06T09:45:10.210Z,99.90
2023-05-06T09:47:38.767Z,99.90
2023-05-06T09:50:09.847Z,99.90
2023-05-06T09:52:39.037Z,99.90
2023-05-06T09:55:08.391Z,99.90
2023-05-06T09:57:37.692Z,99.90
2023-05-06T10:00:11.953Z,99.90
2023-05-06T10:02:43.679Z,99.90
2023-05-06T10:05:13.646Z,99.90
2023-05-06T10:07:43.316Z,99.90
2023-05-06T10:10:13.389Z,99.90
2023-05-06T10:12:41.408Z,99.90
2023-05-06T10:15:10.801Z,99.90
2023-05-06T10:17:41.291Z,99.90
2023-05-06T10:20:11.471Z,99.90
2023-05-06T10:22:49.154Z,99.90
2023-05-06T10:25:27.749Z,99.90
2023-05-06T10:27:55.596Z,99.90
2023-05-06T10:30:24.696Z,99.40
2023-05-06T10:32:56.369Z,99.60
2023-05-06T10:35:33.529Z,97.80
2023-05-06T10:38:04.686Z,97.50
2023-05-06T10:40:33.276Z,95.70
2023-05-06T10:43:27.004Z,95.20
2023-05-06T10:46:03.187Z,95.00
2023-05-06T10:48:32.476Z,94.00
2023-05-06T10:51:25.928Z,91.90
2023-05-06T10:54:06.610Z,91.00
2023-05-06T10:56:36.375Z,91.60
2023-05-06T10:59:08.015Z,90.60
2023-05-06T11:01:36.628Z,91.50
2023-05-06T11:04:09.974Z,91.40
2023-05-06T11:06:41.072Z,91.20
2023-05-06T11:09:17.848Z,91.20
2023-05-06T11:12:01.679Z,90.20
2023-05-06T11:14:30.791Z,88.60
2023-05-06T11:16:59.999Z,87.00
2023-05-06T11:19:29.978Z,87.20
2023-05-06T11:21:59.038Z,86.30
2023-05-06T11:24:29.278Z,86.80
2023-05-06T11:26:59.684Z,87.20
2023-05-06T11:29:27.975Z,87.00
2023-05-06T11:31:55.867Z,86.60
2023-05-06T11:34:25.994Z,86.30
2023-05-06T11:37:05.226Z,85.10
2023-05-06T11:39:40.553Z,85.80
2023-05-06T11:42:09.395Z,84.80
2023-05-06T11:44:38.670Z,82.20
2023-05-06T11:47:08.004Z,83.10
2023-05-06T11:49:41.391Z,83.10
2023-05-06T11:52:09.881Z,82.60
2023-05-06T11:54:40.888Z,83.40
2023-05-06T11:57:09.129Z,82.10
2023-05-06T11:59:38.371Z,80.00
2023-05-06T12:02:08.436Z,80.60
2023-05-06T12:04:41.292Z,82.30
2023-05-06T12:07:11.687Z,80.60
2023-05-06T12:09:44.436Z,78.40
2023-05-06T12:12:16.152Z,78.80
2023-05-06T12:14:46.135Z,77.30
2023-05-06T12:17:14.733Z,75.90
2023-05-06T12:19:42.651Z,76.00
2023-05-06T12:22:18.663Z,74.10
2023-05-06T12:24:48.216Z,73.80
2023-05-06T12:27:16.138Z,73.10
2023-05-06T12:29:53.303Z,76.10
2023-05-06T12:32:21.154Z,74.60
2023-05-06T12:34:49.002Z,76.00
2023-05-06T12:37:26.350Z,76.70
2023-05-06T12:39:58.436Z,72.70
2023-05-06T12:42:27.318Z,70.60
2023-05-06T12:44:55.752Z,70.70
2023-05-06T12:47:25.434Z,69.10
2023-05-06T12:49:54.833Z,68.90
2023-05-06T12:52:24.133Z,69.40
2023-05-06T12:54:53.067Z,69.40
2023-05-06T12:57:22.702Z,67.30
2023-05-06T12:59:51.222Z,66.50
2023-05-06T13:02:19.612Z,63.60
2023-05-06T13:04:47.589Z,63.80
2023-05-06T13:07:15.504Z,64.80
2023-05-06T13:09:44.435Z,65.90
2023-05-06T13:12:12.418Z,66.90
2023-05-06T13:14:41.627Z,69.00
2023-05-06T13:17:09.918Z,68.90
2023-05-06T13:19:38.059Z,69.70
2023-05-06T13:22:05.956Z,68.80
2023-05-06T13:24:33.817Z,68.60
2023-05-06T13:27:02.070Z,68.60
2023-05-06T13:29:30.463Z,68.10
2023-05-06T13:32:00.613Z,69.60
2023-05-06T13:34:28.580Z,69.70
2023-05-06T13:36:57.152Z,70.00
2023-05-06T13:39:25.206Z,67.60
2023-05-06T13:41:54.135Z,68.00
2023-05-06T13:44:22.691Z,67.60
2023-05-06T13:46:50.790Z,69.00
2023-05-06T13:49:20.591Z,69.40
2023-05-06T13:51:48.735Z,71.00
2023-05-06T13:54:16.658Z,71.10
2023-05-06T13:56:44.717Z,70.60
2023-05-06T13:59:13.913Z,72.30
2023-05-06T14:01:42.585Z,72.80
2023-05-06T14:04:10.698Z,73.90
2023-05-06T14:06:40.543Z,74.80
2023-05-06T14:09:08.589Z,74.80
2023-05-06T14:11:36.689Z,74.80
2023-05-06T14:14:04.718Z,75.30
2023-05-06T14:16:32.667Z,75.80
2023-05-06T14:19:01.055Z,77.10
2023-05-06T14:21:28.912Z,78.00
2023-05-06T14:23:58.295Z,77.70
2023-05-06T14:26:26.817Z,78.30
2023-05-06T14:28:54.679Z,78.30
2023-05-06T14:31:23.285Z,78.80
2023-05-06T14:33:51.223Z,79.30
2023-05-06T14:36:19.841Z,77.90
2023-05-06T14:38:47.650Z,78.80
2023-05-06T14:41:16.834Z,78.20
2023-05-06T14:43:44.652Z,78.80
2023-05-06T14:46:14.556Z,78.90
2023-05-06T14:48:43.300Z,78.50
2023-05-06T14:51:11.291Z,78.00
2023-05-06T14:53:39.131Z,78.70
2023-05-06T14:56:09.373Z,78.50
2023-05-06T14:58:39.145Z,78.80
2023-05-06T15:01:07.093Z,78.00
2023-05-06T15:03:36.174Z,77.30
2023-05-06T15:06:04.478Z,77.80
2023-05-06T15:08:32.532Z,77.10
2023-05-06T15:11:03.066Z,76.90
2023-05-06T15:13:31.829Z,77.40
2023-05-06T15:16:01.032Z,76.80
2023-05-06T15:18:28.918Z,76.90
2023-05-06T15:20:58.615Z,76.60
2023-05-06T15:23:26.632Z,76.80
2023-05-06T15:25:54.522Z,77.10
2023-05-06T15:28:24.574Z,75.80
2023-05-06T15:30:52.728Z,76.20
2023-05-06T15:33:22.253Z,76.90
2023-05-06T15:35:50.308Z,75.80
2023-05-06T15:38:18.222Z,76.90
2023-05-06T15:40:51.886Z,73.60
2023-05-06T15:43:23.743Z,75.10
2023-05-06T15:45:52.387Z,77.40
2023-05-06T15:48:21.885Z,78.90
2023-05-06T15:50:49.760Z,78.20
2023-05-06T15:53:17.978Z,78.70
2023-05-06T15:55:52.871Z,78.70
2023-05-06T15:58:25.356Z,78.30
2023-05-06T16:00:53.290Z,78.10
2023-05-06T16:03:22.876Z,77.70
2023-05-06T16:05:54.368Z,78.20
2023-05-06T16:08:22.226Z,77.80
2023-05-06T16:10:50.186Z,77.30
2023-05-06T16:13:18.121Z,77.60
2023-05-06T16:15:46.153Z,76.40
2023-05-06T16:18:14.037Z,77.70
2023-05-06T16:20:43.347Z,75.90
2023-05-06T16:23:11.427Z,77.10
2023-05-06T16:25:39.540Z,78.10
2023-05-06T16:28:08.787Z,78.80
2023-05-06T16:30:37.486Z,79.90
2023-05-06T16:33:06.015Z,79.40
2023-05-06T16:35:34.000Z,79.00
2023-05-06T16:38:03.179Z,79.10
2023-05-06T16:40:31.196Z,79.60
2023-05-06T16:42:59.098Z,80.60
2023-05-06T16:45:26.914Z,80.70
2023-05-06T16:47:54.870Z,81.10
2023-05-06T16:50:22.782Z,81.20
2023-05-06T16:52:50.627Z,81.30
2023-05-06T16:55:21.795Z,81.10
2023-05-06T16:57:49.739Z,80.70
2023-05-06T17:00:18.402Z,80.80
2023-05-06T17:02:46.329Z,81.40
2023-05-06T17:05:14.255Z,81.90
2023-05-06T17:07:42.074Z,81.30
2023-05-06T17:10:10.894Z,81.60
2023-05-06T17:12:41.572Z,81.80
2023-05-06T17:15:10.270Z,82.10
2023-05-06T17:17:38.146Z,81.90
2023-05-06T17:20:07.076Z,81.10
2023-05-06T17:22:35.114Z,80.90
2023-05-06T17:25:04.187Z,81.20
2023-05-06T17:27:32.062Z,80.60
2023-05-06T17:30:01.959Z,80.90
2023-05-06T17:32:29.941Z,82.70
2023-05-06T17:34:58.084Z,82.60
2023-05-06T17:37:25.928Z,82.20
2023-05-06T17:39:54.567Z,83.40
2023-05-06T17:42:22.558Z,83.90
2023-05-06T17:44:50.416Z,82.50
2023-05-06T17:47:22.634Z,82.00
2023-05-06T17:49:51.760Z,83.20
2023-05-06T17:52:19.707Z,83.90
2023-05-06T17:54:56.948Z,85.00
2023-05-06T17:57:30.305Z,86.20
2023-05-06T17:59:58.167Z,86.60
2023-05-06T18:02:27.429Z,87.50
2023-05-06T18:04:55.337Z,88.60
2023-05-06T18:07:23.161Z,88.70
2023-05-06T18:09:52.043Z,88.60
2023-05-06T18:12:20.038Z,88.40
2023-05-06T18:14:48.741Z,88.60
2023-05-06T18:17:16.588Z,88.90
2023-05-06T18:19:45.765Z,89.60
2023-05-06T18:22:13.623Z,89.50
2023-05-06T18:24:42.536Z,89.90
2023-05-06T18:27:10.479Z,90.00
2023-05-06T18:29:38.393Z,90.00
2023-05-06T18:32:07.079Z,89.10
2023-05-06T18:34:35.133Z,89.40
2023-05-06T18:37:04.595Z,88.00
2023-05-06T18:39:32.780Z,87.80
2023-05-06T18:42:00.697Z,88.90
2023-05-06T18:44:28.545Z,89.50
2023-05-06T18:46:56.389Z,88.60
2023-05-06T18:49:25.186Z,88.10
2023-05-06T18:51:54.083Z,88.80
2023-05-06T18:54:23.328Z,88.40
2023-05-06T18:56:51.617Z,88.30
2023-05-06T18:59:19.605Z,88.20
2023-05-06T19:01:47.461Z,88.70
2023-05-06T19:04:16.216Z,87.60
2023-05-06T19:06:44.200Z,88.10
2023-05-06T19:09:12.158Z,88.70
2023-05-06T19:11:41.330Z,88.90
2023-05-06T19:14:09.161Z,89.20
2023-05-06T19:16:37.085Z,89.20
2023-05-06T19:19:07.066Z,89.00
2023-05-06T19:21:35.509Z,89.00
2023-05-06T19:24:03.375Z,89.40
2023-05-06T19:26:31.293Z,89.70
2023-05-06T19:29:00.471Z,89.70
2023-05-06T19:31:28.350Z,90.10
2023-05-06T19:33:56.215Z,90.10
2023-05-06T19:36:24.105Z,90.10
2023-05-06T19:38:52.075Z,90.40
2023-05-06T19:41:19.989Z,90.40
2023-05-06T19:43:48.028Z,90.00
2023-05-06T19:46:17.664Z,90.40
2023-05-06T19:48:46.740Z,90.20
2023-05-06T19:51:14.600Z,90.40
2023-05-06T19:53:42.497Z,90.50
2023-05-06T19:56:11.330Z,90.30
2023-05-06T19:58:39.600Z,90.50
2023-05-06T20:01:07.584Z,90.50
2023-05-06T20:03:37.057Z,90.60
2023-05-06T20:06:05.300Z,90.50
2023-05-06T20:08:33.160Z,90.80
2023-05-06T20:11:01.017Z,90.90
2023-05-06T20:13:28.984Z,90.90
2023-05-06T20:15:57.305Z,90.80
2023-05-06T20:18:25.465Z,91.00
2023-05-06T20:20:54.644Z,91.00
2023-05-06T20:23:22.491Z,91.10
2023-05-06T20:25:50.390Z,91.10
2023-05-06T20:28:18.448Z,90.90
2023-05-06T20:30:46.558Z,90.90
2023-05-06T20:33:14.463Z,90.70
2023-05-06T20:35:42.534Z,90.70
2023-05-06T20:38:12.045Z,90.70
2023-05-06T20:40:39.888Z,90.80
2023-05-06T20:43:07.756Z,91.00
2023-05-06T20:45:35.664Z,91.10
2023-05-06T20:48:03.677Z,91.30
2023-05-06T20:50:31.597Z,91.10
2023-05-06T20:52:59.486Z,91.40
2023-05-06T20:55:28.747Z,92.00
2023-05-06T20:57:56.602Z,92.00
2023-05-06T21:00:24.537Z,91.90
2023-05-06T21:02:52.442Z,92.10
2023-05-06T21:05:20.393Z,92.20
2023-05-06T21:07:48.261Z,92.30
2023-05-06T21:10:16.108Z,92.40
2023-05-06T21:12:49.405Z,92.30
2023-05-06T21:15:17.660Z,92.10
2023-05-06T21:17:45.746Z,92.30
2023-05-06T21:20:14.264Z,92.10
2023-05-06T21:22:42.207Z,92.40
2023-05-06T21:25:13.112Z,92.20
2023-05-06T21:27:41.166Z,92.10
2023-05-06T21:30:11.428Z,92.00
2023-05-06T21:32:39.280Z,92.30
2023-05-06T21:35:08.245Z,92.40
2023-05-06T21:37:36.558Z,92.30
2023-05-06T21:40:05.022Z,92.00
2023-05-06T21:42:32.886Z,92.10
2023-05-06T21:45:00.802Z,91.90
2023-05-06T21:47:30.050Z,92.00
2023-05-06T21:49:57.908Z,92.10
2023-05-06T21:52:25.804Z,92.00
2023-05-06T21:54:54.668Z,92.20
2023-05-06T21:57:22.526Z,92.00
2023-05-06T21:59:50.374Z,92.50
